sensor_id;sensor_type;location;lat;lon;timestamp;P1;durP1;ratioP1;P2;durP2;ratioP2
77748;SDS011;66938;52.084;5.228;2023-06-14T00:02:55;5.9;;;3.2;;
77748;SDS011;66938;52.084;5.228;2023-06-14T00:04:31;6.4;;;3.3;;
77748;SDS011;66938;52.084;5.228;2023-06-14T00:06:07;5.3;;;3.3;;
77748;SDS011;66938;52.084;5.228;2023-06-14T00:09:19;5.0;;;3.2;;
77748;SDS011;66938;52.084;5.228;2023-06-14T00:10:55;6.9;;;3.6;;
77748;SDS011;66938;52.084;5.228;2023-06-14T00:12:32;5.9;;;3.3;;
77748;SDS011;66938;52.084;5.228;2023-06-14T00:15:44;5.7;;;3.1;;
77748;SDS011;66938;52.084;5.228;2023-06-14T00:17:21;5.3;;;3.3;;
77748;SDS011;66938;52.084;5.228;2023-06-14T00:18:57;6.4;;;3.3;;
77748;SDS011;66938;52.084;5.228;2023-06-14T00:20:33;6.3;;;3.5;;
77748;SDS011;66938;52.084;5.228;2023-06-14T00:23:45;5.5;;;3.1;;
77748;SDS011;66938;52.084;5.228;2023-06-14T00:25:22;5.9;;;3.2;;
77748;SDS011;66938;52.084;5.228;2023-06-14T00:26:59;8.1;;;3.4;;
77748;SDS011;66938;52.084;5.228;2023-06-14T00:30:11;5.3;;;3.1;;
77748;SDS011;66938;52.084;5.228;2023-06-14T00:31:48;5.8;;;3.3;;
77748;SDS011;66938;52.084;5.228;2023-06-14T00:33:24;5.7;;;3.4;;
77748;SDS011;66938;52.084;5.228;2023-06-14T00:36:36;7.2;;;3.4;;
77748;SDS011;66938;52.084;5.228;2023-06-14T00:38:13;6.7;;;3.2;;
77748;SDS011;66938;52.084;5.228;2023-06-14T00:39:49;8.2;;;3.3;;
77748;SDS011;66938;52.084;5.228;2023-06-14T00:43:01;6.7;;;3.3;;
77748;SDS011;66938;52.084;5.228;2023-06-14T00:44:37;7.8;;;3.4;;
77748;SDS011;66938;52.084;5.228;2023-06-14T00:46:13;7.3;;;3.5;;
77748;SDS011;66938;52.084;5.228;2023-06-14T00:47:49;5.11;;;3.1;;
77748;SDS011;66938;52.084;5.228;2023-06-14T00:51:05;7.2;;;3.5;;
77748;SDS011;66938;52.084;5.228;2023-06-14T00:52:42;6.9;;;3.0;;
77748;SDS011;66938;52.084;5.228;2023-06-14T00:54:18;6.9;;;3.0;;
77748;SDS011;66938;52.084;5.228;2023-06-14T00:57:30;6.3;;;3.0;;
77748;SDS011;66938;52.084;5.228;2023-06-14T00:59:07;7.8;;;3.4;;
77748;SDS011;66938;52.084;5.228;2023-06-14T01:00:43;6.5;;;3.4;;
77748;SDS011;66938;52.084;5.228;2023-06-14T01:03:55;7.1;;;3.5;;
77748;SDS011;66938;52.084;5.228;2023-06-14T01:05:31;6.6;;;3.5;;
77748;SDS011;66938;52.084;5.228;2023-06-14T01:07:10;7.4;;;3.6;;
77748;SDS011;66938;52.084;5.228;2023-06-14T01:08:57;6.2;;;3.3;;
77748;SDS011;66938;52.084;5.228;2023-06-14T01:12:39;8.6;;;3.4;;
77748;SDS011;66938;52.084;5.228;2023-06-14T01:14:24;6.2;;;3.1;;
77748;SDS011;66938;52.084;5.228;2023-06-14T01:16:03;7.1;;;3.1;;
77748;SDS011;66938;52.084;5.228;2023-06-14T01:17:42;6.1;;;3.1;;
77748;SDS011;66938;52.084;5.228;2023-06-14T01:19:20;6.8;;;3.2;;
77748;SDS011;66938;52.084;5.228;2023-06-14T01:22:35;6.5;;;3.3;;
77748;SDS011;66938;52.084;5.228;2023-06-14T01:24:11;6.2;;;3.5;;
77748;SDS011;66938;52.084;5.228;2023-06-14T01:25:47;6.8;;;3.5;;
77748;SDS011;66938;52.084;5.228;2023-06-14T01:29:01;7.0;;;3.1;;
77748;SDS011;66938;52.084;5.228;2023-06-14T01:30:38;6.7;;;3.3;;
77748;SDS011;66938;52.084;5.228;2023-06-14T01:32:16;7.9;;;3.1;;
77748;SDS011;66938;52.084;5.228;2023-06-14T01:33:53;6.4;;;3.2;;
77748;SDS011;66938;52.084;5.228;2023-06-14T01:37:05;6.0;;;3.0;;
77748;SDS011;66938;52.084;5.228;2023-06-14T01:38:43;6.9;;;3.0;;
77748;SDS011;66938;52.084;5.228;2023-06-14T01:40:20;6.8;;;3.4;;
77748;SDS011;66938;52.084;5.228;2023-06-14T01:43:35;7.7;;;3.5;;
77748;SDS011;66938;52.084;5.228;2023-06-14T01:45:11;6.9;;;3.3;;
77748;SDS011;66938;52.084;5.228;2023-06-14T01:46:47;6.1;;;3.1;;
77748;SDS011;66938;52.084;5.228;2023-06-14T01:48:25;5.2;;;3.1;;
77748;SDS011;66938;52.084;5.228;2023-06-14T01:51:39;5.2;;;3.1;;
77748;SDS011;66938;52.084;5.228;2023-06-14T01:53:15;8.1;;;3.2;;
77748;SDS011;66938;52.084;5.228;2023-06-14T01:54:52;5.4;;;3.4;;
77748;SDS011;66938;52.084;5.228;2023-06-14T01:58:04;8.31;;;3.1;;
77748;SDS011;66938;52.084;5.228;2023-06-14T01:59:40;6.7;;;3.6;;
77748;SDS011;66938;52.084;5.228;2023-06-14T02:01:16;6.2;;;3.1;;
77748;SDS011;66938;52.084;5.228;2023-06-14T02:04:29;6.5;;;3.3;;
77748;SDS011;66938;52.084;5.228;2023-06-14T02:06:05;6.0;;;3.2;;
77748;SDS011;66938;52.084;5.228;2023-06-14T02:07:41;4.5;;;2.9;;
77748;SDS011;66938;52.084;5.228;2023-06-14T02:10:53;7.9;;;3.2;;
77748;SDS011;66938;52.084;5.228;2023-06-14T02:12:29;7.5;;;3.3;;
77748;SDS011;66938;52.084;5.228;2023-06-14T02:14:06;7.0;;;3.3;;
77748;SDS011;66938;52.084;5.228;2023-06-14T02:15:42;6.6;;;3.3;;
77748;SDS011;66938;52.084;5.228;2023-06-14T02:18:54;8.9;;;3.4;;
77748;SDS011;66938;52.084;5.228;2023-06-14T02:20:30;5.3;;;3.3;;
77748;SDS011;66938;52.084;5.228;2023-06-14T02:22:06;6.9;;;3.3;;
77748;SDS011;66938;52.084;5.228;2023-06-14T02:25:19;8.2;;;3.4;;
77748;SDS011;66938;52.084;5.228;2023-06-14T02:26:55;7.1;;;3.1;;
77748;SDS011;66938;52.084;5.228;2023-06-14T02:28:31;6.6;;;3.4;;
77748;SDS011;66938;52.084;5.228;2023-06-14T02:31:44;6.0;;;3.2;;
77748;SDS011;66938;52.084;5.228;2023-06-14T02:33:21;8.5;;;3.2;;
77748;SDS011;66938;52.084;5.228;2023-06-14T02:34:57;7.0;;;3.0;;
77748;SDS011;66938;52.084;5.228;2023-06-14T02:36:34;8.6;;;3.7;;
77748;SDS011;66938;52.084;5.228;2023-06-14T02:39:46;6.4;;;3.2;;
77748;SDS011;66938;52.084;5.228;2023-06-14T02:41:22;6.4;;;3.2;;
77748;SDS011;66938;52.084;5.228;2023-06-14T02:42:58;7.5;;;3.3;;
77748;SDS011;66938;52.084;5.228;2023-06-14T02:46:10;7.7;;;3.2;;
77748;SDS011;66938;52.084;5.228;2023-06-14T02:47:47;8.31;;;3.0;;
77748;SDS011;66938;52.084;5.228;2023-06-14T02:49:23;4.7;;;3.1;;
77748;SDS011;66938;52.084;5.228;2023-06-14T02:52:35;7.8;;;3.6;;
77748;SDS011;66938;52.084;5.228;2023-06-14T02:54:11;9.5;;;3.1;;
77748;SDS011;66938;52.084;5.228;2023-06-14T02:55:47;9.0;;;3.3;;
77748;SDS011;66938;52.084;5.228;2023-06-14T02:59:00;6.5;;;3.6;;
77748;SDS011;66938;52.084;5.228;2023-06-14T03:00:36;6.6;;;3.2;;
77748;SDS011;66938;52.084;5.228;2023-06-14T03:02:12;6.9;;;3.3;;
77748;SDS011;66938;52.084;5.228;2023-06-14T03:03:48;6.3;;;3.3;;
77748;SDS011;66938;52.084;5.228;2023-06-14T03:07:01;7.3;;;3.1;;
77748;SDS011;66938;52.084;5.228;2023-06-14T03:08:37;5.9;;;3.1;;
77748;SDS011;66938;52.084;5.228;2023-06-14T03:10:13;6.3;;;3.1;;
77748;SDS011;66938;52.084;5.228;2023-06-14T03:13:25;6.1;;;3.3;;
77748;SDS011;66938;52.084;5.228;2023-06-14T03:15:01;6.1;;;3.3;;
77748;SDS011;66938;52.084;5.228;2023-06-14T03:16:38;7.6;;;3.2;;
77748;SDS011;66938;52.084;5.228;2023-06-14T03:19:51;7.4;;;3.3;;
77748;SDS011;66938;52.084;5.228;2023-06-14T03:21:27;8.2;;;3.4;;
77748;SDS011;66938;52.084;5.228;2023-06-14T03:23:03;7.0;;;3.1;;
77748;SDS011;66938;52.084;5.228;2023-06-14T03:24:39;7.0;;;3.3;;
77748;SDS011;66938;52.084;5.228;2023-06-14T03:27:51;5.8;;;3.0;;
77748;SDS011;66938;52.084;5.228;2023-06-14T03:29:27;5.5;;;3.6;;
77748;SDS011;66938;52.084;5.228;2023-06-14T03:31:03;6.9;;;3.4;;
77748;SDS011;66938;52.084;5.228;2023-06-14T03:34:16;5.5;;;3.2;;
77748;SDS011;66938;52.084;5.228;2023-06-14T03:35:52;6.8;;;3.3;;
77748;SDS011;66938;52.084;5.228;2023-06-14T03:37:28;7.4;;;3.3;;
77748;SDS011;66938;52.084;5.228;2023-06-14T03:40:40;7.1;;;3.4;;
77748;SDS011;66938;52.084;5.228;2023-06-14T03:42:16;7.3;;;3.3;;
77748;SDS011;66938;52.084;5.228;2023-06-14T03:43:53;7.5;;;3.3;;
77748;SDS011;66938;52.084;5.228;2023-06-14T03:47:05;6.9;;;3.3;;
77748;SDS011;66938;52.084;5.228;2023-06-14T03:48:41;6.2;;;3.1;;
77748;SDS011;66938;52.084;5.228;2023-06-14T03:50:17;7.7;;;3.1;;
77748;SDS011;66938;52.084;5.228;2023-06-14T03:51:53;7.6;;;3.0;;
77748;SDS011;66938;52.084;5.228;2023-06-14T03:55:06;5.7;;;3.2;;
77748;SDS011;66938;52.084;5.228;2023-06-14T03:56:42;7.7;;;3.2;;
77748;SDS011;66938;52.084;5.228;2023-06-14T03:58:18;5.6;;;2.8;;
77748;SDS011;66938;52.084;5.228;2023-06-14T04:01:30;5.7;;;3.2;;
77748;SDS011;66938;52.084;5.228;2023-06-14T04:03:06;7.5;;;3.3;;
77748;SDS011;66938;52.084;5.228;2023-06-14T04:04:43;7.9;;;3.1;;
77748;SDS011;66938;52.084;5.228;2023-06-14T04:07:55;6.5;;;3.1;;
77748;SDS011;66938;52.084;5.228;2023-06-14T04:09:31;6.4;;;3.2;;
77748;SDS011;66938;52.084;5.228;2023-06-14T04:11:07;7.1;;;3.0;;
77748;SDS011;66938;52.084;5.228;2023-06-14T04:14:19;6.0;;;3.3;;
77748;SDS011;66938;52.084;5.228;2023-06-14T04:15:56;5.8;;;3.1;;
77748;SDS011;66938;52.084;5.228;2023-06-14T04:17:32;7.5;;;3.1;;
77748;SDS011;66938;52.084;5.228;2023-06-14T04:19:08;5.6;;;2.9;;
77748;SDS011;66938;52.084;5.228;2023-06-14T04:22:20;7.8;;;3.3;;
77748;SDS011;66938;52.084;5.228;2023-06-14T04:23:56;7.5;;;3.4;;
77748;SDS011;66938;52.084;5.228;2023-06-14T04:25:32;6.9;;;3.0;;
77748;SDS011;66938;52.084;5.228;2023-06-14T04:28:45;8.2;;;3.2;;
77748;SDS011;66938;52.084;5.228;2023-06-14T04:30:21;9.31;;;3.1;;
77748;SDS011;66938;52.084;5.228;2023-06-14T04:31:57;9.81;;;3.3;;
77748;SDS011;66938;52.084;5.228;2023-06-14T04:35:09;10.5;;;3.2;;
77748;SDS011;66938;52.084;5.228;2023-06-14T04:36:45;8.4;;;3.3;;
77748;SDS011;66938;52.084;5.228;2023-06-14T04:38:22;6.2;;;3.0;;
77748;SDS011;66938;52.084;5.228;2023-06-14T04:39:58;8.31;;;3.3;;
77748;SDS011;66938;52.084;5.228;2023-06-14T04:43:10;8.0;;;3.3;;
77748;SDS011;66938;52.084;5.228;2023-06-14T04:44:46;6.4;;;3.3;;
77748;SDS011;66938;52.084;5.228;2023-06-14T04:46:22;7.6;;;3.3;;
77748;SDS011;66938;52.084;5.228;2023-06-14T04:49:34;7.4;;;3.2;;
77748;SDS011;66938;52.084;5.228;2023-06-14T04:51:11;7.6;;;3.2;;
77748;SDS011;66938;52.084;5.228;2023-06-14T04:52:47;6.8;;;3.0;;
77748;SDS011;66938;52.084;5.228;2023-06-14T04:55:59;5.5;;;2.9;;
77748;SDS011;66938;52.084;5.228;2023-06-14T04:57:35;7.5;;;3.3;;
77748;SDS011;66938;52.084;5.228;2023-06-14T04:59:11;7.0;;;3.1;;
77748;SDS011;66938;52.084;5.228;2023-06-14T05:02:24;6.9;;;3.1;;
77748;SDS011;66938;52.084;5.228;2023-06-14T05:04:01;6.2;;;3.1;;
77748;SDS011;66938;52.084;5.228;2023-06-14T05:05:37;9.71;;;3.4;;
77748;SDS011;66938;52.084;5.228;2023-06-14T05:07:13;6.4;;;3.0;;
77748;SDS011;66938;52.084;5.228;2023-06-14T05:10:25;6.1;;;3.3;;
77748;SDS011;66938;52.084;5.228;2023-06-14T05:12:01;7.1;;;2.9;;
77748;SDS011;66938;52.084;5.228;2023-06-14T05:13:37;4.8;;;2.9;;
77748;SDS011;66938;52.084;5.228;2023-06-14T05:16:50;8.0;;;3.7;;
77748;SDS011;66938;52.084;5.228;2023-06-14T05:18:26;6.5;;;3.2;;
77748;SDS011;66938;52.084;5.228;2023-06-14T05:20:02;6.0;;;3.3;;
77748;SDS011;66938;52.084;5.228;2023-06-14T05:23:14;5.5;;;2.9;;
77748;SDS011;66938;52.084;5.228;2023-06-14T05:24:50;6.7;;;3.2;;
77748;SDS011;66938;52.084;5.228;2023-06-14T05:26:27;5.7;;;3.2;;
77748;SDS011;66938;52.084;5.228;2023-06-14T05:29:39;6.8;;;3.1;;
77748;SDS011;66938;52.084;5.228;2023-06-14T05:31:15;7.6;;;3.4;;
77748;SDS011;66938;52.084;5.228;2023-06-14T05:32:51;7.7;;;3.3;;
77748;SDS011;66938;52.084;5.228;2023-06-14T05:34:27;8.4;;;3.0;;
77748;SDS011;66938;52.084;5.228;2023-06-14T05:37:40;7.5;;;3.0;;
77748;SDS011;66938;52.084;5.228;2023-06-14T05:39:16;6.5;;;3.2;;
77748;SDS011;66938;52.084;5.228;2023-06-14T05:40:52;6.2;;;3.1;;
77748;SDS011;66938;52.084;5.228;2023-06-14T05:44:04;5.7;;;3.4;;
77748;SDS011;66938;52.084;5.228;2023-06-14T05:45:40;8.6;;;3.0;;
77748;SDS011;66938;52.084;5.228;2023-06-14T05:47:17;6.9;;;3.2;;
77748;SDS011;66938;52.084;5.228;2023-06-14T05:50:31;8.1;;;3.4;;
77748;SDS011;66938;52.084;5.228;2023-06-14T05:52:07;5.2;;;3.2;;
77748;SDS011;66938;52.084;5.228;2023-06-14T05:53:44;6.3;;;3.1;;
77748;SDS011;66938;52.084;5.228;2023-06-14T05:55:20;6.3;;;3.0;;
77748;SDS011;66938;52.084;5.228;2023-06-14T05:58:32;6.0;;;3.1;;
77748;SDS011;66938;52.084;5.228;2023-06-14T06:00:09;7.9;;;3.2;;
77748;SDS011;66938;52.084;5.228;2023-06-14T06:01:46;6.0;;;3.0;;
77748;SDS011;66938;52.084;5.228;2023-06-14T06:04:58;7.8;;;3.2;;
77748;SDS011;66938;52.084;5.228;2023-06-14T06:06:34;7.5;;;3.2;;
77748;SDS011;66938;52.084;5.228;2023-06-14T06:08:10;8.0;;;3.2;;
77748;SDS011;66938;52.084;5.228;2023-06-14T06:11:22;5.5;;;3.1;;
77748;SDS011;66938;52.084;5.228;2023-06-14T06:12:59;6.2;;;3.3;;
77748;SDS011;66938;52.084;5.228;2023-06-14T06:14:35;4.91;;;3.2;;
77748;SDS011;66938;52.084;5.228;2023-06-14T06:16:11;8.71;;;3.5;;
77748;SDS011;66938;52.084;5.228;2023-06-14T06:19:23;7.5;;;3.3;;
77748;SDS011;66938;52.084;5.228;2023-06-14T06:20:59;5.7;;;3.2;;
77748;SDS011;66938;52.084;5.228;2023-06-14T06:22:35;6.7;;;3.2;;
77748;SDS011;66938;52.084;5.228;2023-06-14T06:25:48;9.81;;;3.3;;
77748;SDS011;66938;52.084;5.228;2023-06-14T06:27:24;7.3;;;3.1;;
77748;SDS011;66938;52.084;5.228;2023-06-14T06:29:00;6.6;;;3.4;;
77748;SDS011;66938;52.084;5.228;2023-06-14T06:32:12;5.9;;;3.1;;
77748;SDS011;66938;52.084;5.228;2023-06-14T06:33:49;9.31;;;3.5;;
77748;SDS011;66938;52.084;5.228;2023-06-14T06:35:25;7.0;;;3.3;;
77748;SDS011;66938;52.084;5.228;2023-06-14T06:38:38;6.3;;;3.6;;
77748;SDS011;66938;52.084;5.228;2023-06-14T06:40:14;6.8;;;3.0;;
77748;SDS011;66938;52.084;5.228;2023-06-14T06:41:50;6.7;;;3.1;;
77748;SDS011;66938;52.084;5.228;2023-06-14T06:43:26;5.2;;;3.0;;
77748;SDS011;66938;52.084;5.228;2023-06-14T06:46:39;4.61;;;3.0;;
77748;SDS011;66938;52.084;5.228;2023-06-14T06:48:16;5.6;;;3.2;;
77748;SDS011;66938;52.084;5.228;2023-06-14T06:49:52;6.3;;;3.0;;
77748;SDS011;66938;52.084;5.228;2023-06-14T06:53:04;4.91;;;3.1;;
77748;SDS011;66938;52.084;5.228;2023-06-14T06:54:40;6.6;;;3.5;;
77748;SDS011;66938;52.084;5.228;2023-06-14T06:56:16;7.8;;;3.1;;
77748;SDS011;66938;52.084;5.228;2023-06-14T06:59:29;8.2;;;3.3;;
77748;SDS011;66938;52.084;5.228;2023-06-14T07:01:05;6.9;;;3.2;;
77748;SDS011;66938;52.084;5.228;2023-06-14T07:02:41;4.61;;;3.1;;
77748;SDS011;66938;52.084;5.228;2023-06-14T07:04:17;7.1;;;3.4;;
77748;SDS011;66938;52.084;5.228;2023-06-14T07:07:29;6.8;;;3.6;;
77748;SDS011;66938;52.084;5.228;2023-06-14T07:09:05;7.0;;;3.2;;
77748;SDS011;66938;52.084;5.228;2023-06-14T07:10:42;7.3;;;3.2;;
77748;SDS011;66938;52.084;5.228;2023-06-14T07:13:54;5.4;;;3.1;;
77748;SDS011;66938;52.084;5.228;2023-06-14T07:15:30;6.2;;;3.1;;
77748;SDS011;66938;52.084;5.228;2023-06-14T07:17:06;7.5;;;3.1;;
77748;SDS011;66938;52.084;5.228;2023-06-14T07:20:18;5.9;;;2.9;;
77748;SDS011;66938;52.084;5.228;2023-06-14T07:21:54;7.5;;;3.0;;
77748;SDS011;66938;52.084;5.228;2023-06-14T07:23:31;6.1;;;3.1;;
77748;SDS011;66938;52.084;5.228;2023-06-14T07:26:44;6.9;;;2.9;;
77748;SDS011;66938;52.084;5.228;2023-06-14T07:28:20;5.11;;;3.1;;
77748;SDS011;66938;52.084;5.228;2023-06-14T07:29:56;6.2;;;3.2;;
77748;SDS011;66938;52.084;5.228;2023-06-14T07:31:32;7.3;;;2.9;;
77748;SDS011;66938;52.084;5.228;2023-06-14T07:34:45;7.3;;;3.2;;
77748;SDS011;66938;52.084;5.228;2023-06-14T07:36:21;6.4;;;3.0;;
77748;SDS011;66938;52.084;5.228;2023-06-14T07:37:58;5.5;;;3.1;;
77748;SDS011;66938;52.084;5.228;2023-06-14T07:41:10;6.8;;;3.2;;
77748;SDS011;66938;52.084;5.228;2023-06-14T07:42:46;6.5;;;2.9;;
77748;SDS011;66938;52.084;5.228;2023-06-14T07:44:22;6.3;;;2.6;;
77748;SDS011;66938;52.084;5.228;2023-06-14T07:47:35;7.7;;;3.1;;
77748;SDS011;66938;52.084;5.228;2023-06-14T07:49:11;5.0;;;3.2;;
77748;SDS011;66938;52.084;5.228;2023-06-14T07:50:47;7.1;;;2.9;;
77748;SDS011;66938;52.084;5.228;2023-06-14T07:52:23;5.8;;;2.6;;
77748;SDS011;66938;52.084;5.228;2023-06-14T07:55:35;5.8;;;2.7;;
77748;SDS011;66938;52.084;5.228;2023-06-14T07:57:11;5.5;;;2.7;;
77748;SDS011;66938;52.084;5.228;2023-06-14T07:58:48;7.1;;;3.0;;
77748;SDS011;66938;52.084;5.228;2023-06-14T08:02:00;6.4;;;2.7;;
77748;SDS011;66938;52.084;5.228;2023-06-14T08:03:36;5.5;;;2.6;;
77748;SDS011;66938;52.084;5.228;2023-06-14T08:05:12;4.8;;;2.6;;
77748;SDS011;66938;52.084;5.228;2023-06-14T08:08:25;4.8;;;2.31;;
77748;SDS011;66938;52.084;5.228;2023-06-14T08:10:01;6.7;;;2.6;;
77748;SDS011;66938;52.084;5.228;2023-06-14T08:11:37;5.7;;;2.5;;
77748;SDS011;66938;52.084;5.228;2023-06-14T08:14:50;5.2;;;2.31;;
77748;SDS011;66938;52.084;5.228;2023-06-14T08:16:26;4.91;;;2.4;;
77748;SDS011;66938;52.084;5.228;2023-06-14T08:18:02;3.3;;;2.31;;
77748;SDS011;66938;52.084;5.228;2023-06-14T08:19:38;4.3;;;2.4;;
77748;SDS011;66938;52.084;5.228;2023-06-14T08:22:50;6.3;;;2.31;;
77748;SDS011;66938;52.084;5.228;2023-06-14T08:24:26;5.8;;;2.1;;
77748;SDS011;66938;52.084;5.228;2023-06-14T08:26:03;5.5;;;2.4;;
77748;SDS011;66938;52.084;5.228;2023-06-14T08:29:16;5.0;;;2.21;;
77748;SDS011;66938;52.084;5.228;2023-06-14T08:30:52;5.4;;;2.1;;
77748;SDS011;66938;52.084;5.228;2023-06-14T08:32:28;5.11;;;2.4;;
77748;SDS011;66938;52.084;5.228;2023-06-14T08:35:40;5.11;;;2.4;;
77748;SDS011;66938;52.084;5.228;2023-06-14T08:37:16;4.5;;;2.31;;
77748;SDS011;66938;52.084;5.228;2023-06-14T08:38:53;4.1;;;2.21;;
77748;SDS011;66938;52.084;5.228;2023-06-14T08:42:07;5.11;;;2.0;;
77748;SDS011;66938;52.084;5.228;2023-06-14T08:43:45;5.5;;;2.31;;
77748;SDS011;66938;52.084;5.228;2023-06-14T08:45:22;4.2;;;2.1;;
77748;SDS011;66938;52.084;5.228;2023-06-14T08:47:00;6.4;;;2.4;;
77748;SDS011;66938;52.084;5.228;2023-06-14T08:50:14;4.8;;;2.0;;
77748;SDS011;66938;52.084;5.228;2023-06-14T08:51:51;4.5;;;2.0;;
77748;SDS011;66938;52.084;5.228;2023-06-14T08:53:34;4.41;;;2.0;;
77748;SDS011;66938;52.084;5.228;2023-06-14T08:55:13;3.4;;;2.0;;
77748;SDS011;66938;52.084;5.228;2023-06-14T08:58:26;3.9;;;1.8;;
77748;SDS011;66938;52.084;5.228;2023-06-14T09:00:04;4.3;;;2.21;;
77748;SDS011;66938;52.084;5.228;2023-06-14T09:01:41;4.1;;;2.1;;
77748;SDS011;66938;52.084;5.228;2023-06-14T09:04:54;3.8;;;2.1;;
77748;SDS011;66938;52.084;5.228;2023-06-14T09:06:30;4.5;;;1.9;;
77748;SDS011;66938;52.084;5.228;2023-06-14T09:08:06;3.7;;;2.0;;
77748;SDS011;66938;52.084;5.228;2023-06-14T09:11:19;2.9;;;1.9;;
77748;SDS011;66938;52.084;5.228;2023-06-14T09:12:55;2.8;;;1.8;;
77748;SDS011;66938;52.084;5.228;2023-06-14T09:14:33;4.5;;;1.7;;
77748;SDS011;66938;52.084;5.228;2023-06-14T09:16:09;3.9;;;1.7;;
77748;SDS011;66938;52.084;5.228;2023-06-14T09:19:22;3.7;;;1.7;;
77748;SDS011;66938;52.084;5.228;2023-06-14T09:20:59;4.0;;;1.8;;
77748;SDS011;66938;52.084;5.228;2023-06-14T09:22:36;6.2;;;2.1;;
77748;SDS011;66938;52.084;5.228;2023-06-14T09:25:50;5.3;;;1.7;;
77748;SDS011;66938;52.084;5.228;2023-06-14T09:27:26;5.7;;;2.1;;
77748;SDS011;66938;52.084;5.228;2023-06-14T09:29:04;5.2;;;1.7;;
77748;SDS011;66938;52.084;5.228;2023-06-14T09:32:17;5.5;;;1.8;;
77748;SDS011;66938;52.084;5.228;2023-06-14T09:33:53;4.3;;;1.8;;
77748;SDS011;66938;52.084;5.228;2023-06-14T09:35:30;4.41;;;1.7;;
77748;SDS011;66938;52.084;5.228;2023-06-14T09:37:06;5.0;;;1.9;;
77748;SDS011;66938;52.084;5.228;2023-06-14T09:40:28;4.1;;;1.6;;
77748;SDS011;66938;52.084;5.228;2023-06-14T09:42:15;4.0;;;1.6;;
77748;SDS011;66938;52.084;5.228;2023-06-14T09:43:52;4.2;;;1.7;;
77748;SDS011;66938;52.084;5.228;2023-06-14T09:45:29;4.8;;;1.7;;
77748;SDS011;66938;52.084;5.228;2023-06-14T09:48:42;3.6;;;1.6;;
77748;SDS011;66938;52.084;5.228;2023-06-14T09:50:18;5.4;;;1.7;;
77748;SDS011;66938;52.084;5.228;2023-06-14T09:51:54;2.6;;;1.7;;
77748;SDS011;66938;52.084;5.228;2023-06-14T09:55:12;2.21;;;1.6;;
77748;SDS011;66938;52.084;5.228;2023-06-14T09:56:49;3.5;;;1.6;;
77748;SDS011;66938;52.084;5.228;2023-06-14T09:58:28;4.2;;;1.8;;
77748;SDS011;66938;52.084;5.228;2023-06-14T10:00:06;4.2;;;1.7;;
77748;SDS011;66938;52.084;5.228;2023-06-14T10:03:21;3.7;;;1.5;;
77748;SDS011;66938;52.084;5.228;2023-06-14T10:05:03;2.7;;;1.7;;
77748;SDS011;66938;52.084;5.228;2023-06-14T10:06:41;4.1;;;1.7;;
77748;SDS011;66938;52.084;5.228;2023-06-14T10:10:02;3.9;;;1.8;;
77748;SDS011;66938;52.084;5.228;2023-06-14T10:11:40;5.3;;;1.9;;
77748;SDS011;66938;52.084;5.228;2023-06-14T10:13:16;4.61;;;1.8;;
77748;SDS011;66938;52.084;5.228;2023-06-14T10:14:53;4.3;;;1.7;;
77748;SDS011;66938;52.084;5.228;2023-06-14T10:18:14;2.9;;;1.5;;
77748;SDS011;66938;52.084;5.228;2023-06-14T10:20:02;4.0;;;1.7;;
77748;SDS011;66938;52.084;5.228;2023-06-14T10:21:55;3.7;;;1.6;;
77748;SDS011;66938;52.084;5.228;2023-06-14T10:23:37;4.7;;;1.7;;
77748;SDS011;66938;52.084;5.228;2023-06-14T10:25:26;3.1;;;1.4;;
77748;SDS011;66938;52.084;5.228;2023-06-14T10:28:58;5.3;;;1.6;;
77748;SDS011;66938;52.084;5.228;2023-06-14T10:30:35;3.4;;;1.7;;
77748;SDS011;66938;52.084;5.228;2023-06-14T10:32:11;4.3;;;1.9;;
77748;SDS011;66938;52.084;5.228;2023-06-14T10:33:48;4.2;;;1.7;;
77748;SDS011;66938;52.084;5.228;2023-06-14T10:37:03;3.5;;;1.8;;
77748;SDS011;66938;52.084;5.228;2023-06-14T10:38:40;5.11;;;1.9;;
77748;SDS011;66938;52.084;5.228;2023-06-14T10:40:29;2.9;;;1.6;;
77748;SDS011;66938;52.084;5.228;2023-06-14T10:42:06;3.5;;;1.7;;
77748;SDS011;66938;52.084;5.228;2023-06-14T10:45:19;3.3;;;1.6;;
77748;SDS011;66938;52.084;5.228;2023-06-14T10:46:57;2.9;;;1.6;;
77748;SDS011;66938;52.084;5.228;2023-06-14T10:48:39;4.0;;;1.8;;
77748;SDS011;66938;52.084;5.228;2023-06-14T10:50:16;3.5;;;1.7;;
77748;SDS011;66938;52.084;5.228;2023-06-14T10:53:39;3.8;;;1.5;;
77748;SDS011;66938;52.084;5.228;2023-06-14T10:55:16;2.6;;;1.6;;
77748;SDS011;66938;52.084;5.228;2023-06-14T10:56:53;3.2;;;1.7;;
77748;SDS011;66938;52.084;5.228;2023-06-14T11:00:06;4.1;;;1.9;;
77748;SDS011;66938;52.084;5.228;2023-06-14T11:01:47;2.31;;;1.6;;
77748;SDS011;66938;52.084;5.228;2023-06-14T11:03:43;4.41;;;1.9;;
77748;SDS011;66938;52.084;5.228;2023-06-14T11:05:26;4.5;;;1.8;;
77748;SDS011;66938;52.084;5.228;2023-06-14T11:07:08;3.2;;;1.6;;
77748;SDS011;66938;52.084;5.228;2023-06-14T11:12:07;3.4;;;1.6;;
77748;SDS011;66938;52.084;5.228;2023-06-14T11:13:46;3.2;;;1.6;;
77748;SDS011;66938;52.084;5.228;2023-06-14T11:15:27;3.6;;;1.9;;
77748;SDS011;66938;52.084;5.228;2023-06-14T11:18:41;4.61;;;1.8;;
77748;SDS011;66938;52.084;5.228;2023-06-14T11:20:19;2.9;;;1.7;;
77748;SDS011;66938;52.084;5.228;2023-06-14T11:21:55;5.0;;;1.8;;
77748;SDS011;66938;52.084;5.228;2023-06-14T11:25:08;2.9;;;1.5;;
77748;SDS011;66938;52.084;5.228;2023-06-14T11:26:46;4.8;;;1.7;;
77748;SDS011;66938;52.084;5.228;2023-06-14T11:28:23;3.7;;;1.7;;
77748;SDS011;66938;52.084;5.228;2023-06-14T11:29:59;4.8;;;1.6;;
77748;SDS011;66938;52.084;5.228;2023-06-14T11:33:11;3.8;;;1.5;;
77748;SDS011;66938;52.084;5.228;2023-06-14T11:34:52;4.3;;;1.6;;
77748;SDS011;66938;52.084;5.228;2023-06-14T11:36:29;3.1;;;1.6;;
77748;SDS011;66938;52.084;5.228;2023-06-14T11:39:43;7.5;;;1.8;;
77748;SDS011;66938;52.084;5.228;2023-06-14T11:41:20;4.5;;;1.6;;
77748;SDS011;66938;52.084;5.228;2023-06-14T11:43:00;4.0;;;1.6;;
77748;SDS011;66938;52.084;5.228;2023-06-14T11:44:37;3.9;;;1.6;;
77748;SDS011;66938;52.084;5.228;2023-06-14T11:47:50;2.8;;;1.5;;
77748;SDS011;66938;52.084;5.228;2023-06-14T11:49:26;2.6;;;1.6;;
77748;SDS011;66938;52.084;5.228;2023-06-14T11:51:02;3.7;;;1.5;;
77748;SDS011;66938;52.084;5.228;2023-06-14T11:54:15;3.7;;;1.5;;
77748;SDS011;66938;52.084;5.228;2023-06-14T11:55:51;4.61;;;1.7;;
77748;SDS011;66938;52.084;5.228;2023-06-14T11:57:27;3.7;;;1.7;;
77748;SDS011;66938;52.084;5.228;2023-06-14T12:00:39;3.4;;;1.5;;
77748;SDS011;66938;52.084;5.228;2023-06-14T12:02:15;3.2;;;1.6;;
77748;SDS011;66938;52.084;5.228;2023-06-14T12:03:53;3.8;;;1.6;;
77748;SDS011;66938;52.084;5.228;2023-06-14T12:05:32;2.7;;;1.7;;
77748;SDS011;66938;52.084;5.228;2023-06-14T12:08:45;2.9;;;1.4;;
77748;SDS011;66938;52.084;5.228;2023-06-14T12:10:21;3.2;;;1.6;;
77748;SDS011;66938;52.084;5.228;2023-06-14T12:12:00;4.1;;;1.5;;
77748;SDS011;66938;52.084;5.228;2023-06-14T12:15:13;3.0;;;1.7;;
77748;SDS011;66938;52.084;5.228;2023-06-14T12:16:50;2.8;;;1.8;;
77748;SDS011;66938;52.084;5.228;2023-06-14T12:18:33;3.4;;;1.8;;
77748;SDS011;66938;52.084;5.228;2023-06-14T12:20:12;3.9;;;1.6;;
77748;SDS011;66938;52.084;5.228;2023-06-14T12:23:25;3.0;;;1.6;;
77748;SDS011;66938;52.084;5.228;2023-06-14T12:25:01;6.3;;;1.7;;
77748;SDS011;66938;52.084;5.228;2023-06-14T12:26:38;3.3;;;1.7;;
77748;SDS011;66938;52.084;5.228;2023-06-14T12:29:58;5.7;;;1.9;;
77748;SDS011;66938;52.084;5.228;2023-06-14T12:31:35;3.6;;;1.7;;
77748;SDS011;66938;52.084;5.228;2023-06-14T12:33:11;3.1;;;1.7;;
77748;SDS011;66938;52.084;5.228;2023-06-14T12:36:24;4.41;;;1.6;;
77748;SDS011;66938;52.084;5.228;2023-06-14T12:38:01;3.1;;;1.6;;
77748;SDS011;66938;52.084;5.228;2023-06-14T12:39:37;5.11;;;1.7;;
77748;SDS011;66938;52.084;5.228;2023-06-14T12:41:13;4.41;;;1.7;;
77748;SDS011;66938;52.084;5.228;2023-06-14T12:44:25;2.6;;;1.5;;
77748;SDS011;66938;52.084;5.228;2023-06-14T12:46:01;3.5;;;1.6;;
77748;SDS011;66938;52.084;5.228;2023-06-14T12:47:37;4.0;;;1.5;;
77748;SDS011;66938;52.084;5.228;2023-06-14T12:50:50;3.1;;;1.4;;
77748;SDS011;66938;52.084;5.228;2023-06-14T12:52:26;4.2;;;1.6;;
77748;SDS011;66938;52.084;5.228;2023-06-14T12:54:02;3.1;;;1.5;;
77748;SDS011;66938;52.084;5.228;2023-06-14T12:57:14;2.8;;;1.4;;
77748;SDS011;66938;52.084;5.228;2023-06-14T12:58:50;3.7;;;1.6;;
77748;SDS011;66938;52.084;5.228;2023-06-14T13:00:27;4.7;;;1.6;;
77748;SDS011;66938;52.084;5.228;2023-06-14T13:02:11;2.6;;;1.6;;